sensor_id;sensor_type;location;lat;lon;timestamp;P1;durP1;ratioP1;P2;durP2;ratioP2
33840;SDS011;20142;28.494;-16.312;2022-09-09T00:05:00;8.55;;;1.27;;
33840;SDS011;20142;28.494;-16.312;2022-09-09T00:25:50;3.90;;;0.75;;
33840;SDS011;20142;28.494;-16.312;2022-09-09T00:31:13;4.97;;;0.93;;
33840;SDS011;20142;28.494;-16.312;2022-09-09T00:36:24;6.50;;;0.88;;
33840;SDS011;20142;28.494;-16.312;2022-09-09T00:46:45;6.57;;;1.40;;
33840;SDS011;20142;28.494;-16.312;2022-09-09T00:52:08;5.82;;;1.08;;
33840;SDS011;20142;28.494;-16.312;2022-09-09T01:02:39;10.95;;;1.42;;
33840;SDS011;20142;28.494;-16.312;2022-09-09T01:07:58;4.13;;;0.73;;
33840;SDS011;20142;28.494;-16.312;2022-09-09T01:13:04;6.78;;;1.20;;
33840;SDS011;20142;28.494;-16.312;2022-09-09T01:18:15;9.15;;;0.82;;
33840;SDS011;20142;28.494;-16.312;2022-09-09T01:28:29;4.75;;;0.60;;
33840;SDS011;20142;28.494;-16.312;2022-09-09T01:33:32;7.35;;;1.15;;
33840;SDS011;20142;28.494;-16.312;2022-09-09T01:38:34;4.15;;;0.93;;
33840;SDS011;20142;28.494;-16.312;2022-09-09T01:43:37;6.25;;;0.70;;
33840;SDS011;20142;28.494;-16.312;2022-09-09T01:48:39;4.30;;;1.08;;
33840;SDS011;20142;28.494;-16.312;2022-09-09T01:53:42;7.60;;;1.15;;
33840;SDS011;20142;28.494;-16.312;2022-09-09T01:58:53;3.55;;;0.90;;
33840;SDS011;20142;28.494;-16.312;2022-09-09T02:04:05;8.35;;;0.90;;
33840;SDS011;20142;28.494;-16.312;2022-09-09T02:09:14;7.80;;;0.77;;
33840;SDS011;20142;28.494;-16.312;2022-09-09T02:14:21;7.03;;;0.77;;
33840;SDS011;20142;28.494;-16.312;2022-09-09T02:19:25;9.32;;;0.85;;
33840;SDS011;20142;28.494;-16.312;2022-09-09T02:24:33;9.55;;;1.00;;
33840;SDS011;20142;28.494;-16.312;2022-09-09T02:29:41;7.88;;;0.85;;
33840;SDS011;20142;28.494;-16.312;2022-09-09T02:34:44;7.97;;;1.00;;
33840;SDS011;20142;28.494;-16.312;2022-09-09T02:39:52;5.65;;;0.93;;
33840;SDS011;20142;28.494;-16.312;2022-09-09T02:44:54;13.63;;;1.23;;
33840;SDS011;20142;28.494;-16.312;2022-09-09T02:50:08;9.95;;;1.02;;
33840;SDS011;20142;28.494;-16.312;2022-09-09T02:55:17;6.03;;;1.20;;
33840;SDS011;20142;28.494;-16.312;2022-09-09T03:00:59;7.30;;;0.93;;
33840;SDS011;20142;28.494;-16.312;2022-09-09T03:06:03;5.95;;;1.00;;
33840;SDS011;20142;28.494;-16.312;2022-09-09T03:11:06;11.38;;;1.05;;
33840;SDS011;20142;28.494;-16.312;2022-09-09T03:16:09;7.32;;;1.05;;
33840;SDS011;20142;28.494;-16.312;2022-09-09T03:21:11;8.48;;;1.10;;
33840;SDS011;20142;28.494;-16.312;2022-09-09T03:26:14;7.25;;;1.17;;
33840;SDS011;20142;28.494;-16.312;2022-09-09T03:31:16;7.57;;;1.00;;
33840;SDS011;20142;28.494;-16.312;2022-09-09T03:36:18;10.75;;;1.20;;
33840;SDS011;20142;28.494;-16.312;2022-09-09T03:41:23;8.82;;;1.20;;
33840;SDS011;20142;28.494;-16.312;2022-09-09T03:46:26;4.30;;;1.05;;
33840;SDS011;20142;28.494;-16.312;2022-09-09T03:51:28;4.47;;;1.08;;
33840;SDS011;20142;28.494;-16.312;2022-09-09T03:56:31;8.85;;;1.45;;
33840;SDS011;20142;28.494;-16.312;2022-09-09T04:01:32;9.70;;;1.38;;
33840;SDS011;20142;28.494;-16.312;2022-09-09T04:06:34;11.70;;;1.20;;
33840;SDS011;20142;28.494;-16.312;2022-09-09T04:11:37;10.90;;;0.90;;
33840;SDS011;20142;28.494;-16.312;2022-09-09T04:16:38;6.05;;;1.10;;
33840;SDS011;20142;28.494;-16.312;2022-09-09T04:21:45;9.68;;;1.17;;
33840;SDS011;20142;28.494;-16.312;2022-09-09T04:26:46;7.07;;;1.27;;
33840;SDS011;20142;28.494;-16.312;2022-09-09T04:31:49;8.48;;;1.20;;
33840;SDS011;20142;28.494;-16.312;2022-09-09T04:36:51;7.28;;;1.25;;
33840;SDS011;20142;28.494;-16.312;2022-09-09T04:41:53;12.10;;;1.20;;
33840;SDS011;20142;28.494;-16.312;2022-09-09T04:46:55;7.22;;;1.30;;
33840;SDS011;20142;28.494;-16.312;2022-09-09T04:51:58;6.72;;;1.17;;
33840;SDS011;20142;28.494;-16.312;2022-09-09T04:57:00;8.18;;;1.20;;
33840;SDS011;20142;28.494;-16.312;2022-09-09T05:02:02;6.72;;;0.95;;
33840;SDS011;20142;28.494;-16.312;2022-09-09T05:07:04;8.75;;;0.90;;
33840;SDS011;20142;28.494;-16.312;2022-09-09T05:12:07;7.68;;;1.30;;
33840;SDS011;20142;28.494;-16.312;2022-09-09T05:17:09;12.15;;;1.50;;
33840;SDS011;20142;28.494;-16.312;2022-09-09T05:22:11;8.00;;;1.00;;
33840;SDS011;20142;28.494;-16.312;2022-09-09T05:27:13;8.00;;;1.35;;
33840;SDS011;20142;28.494;-16.312;2022-09-09T05:32:15;7.68;;;1.05;;
33840;SDS011;20142;28.494;-16.312;2022-09-09T05:37:17;11.98;;;1.27;;
33840;SDS011;20142;28.494;-16.312;2022-09-09T05:42:19;7.00;;;1.25;;
33840;SDS011;20142;28.494;-16.312;2022-09-09T05:47:21;6.40;;;1.25;;
33840;SDS011;20142;28.494;-16.312;2022-09-09T05:52:23;9.98;;;1.35;;
33840;SDS011;20142;28.494;-16.312;2022-09-09T05:57:26;11.10;;;1.35;;
33840;SDS011;20142;28.494;-16.312;2022-09-09T06:02:28;7.47;;;1.27;;
33840;SDS011;20142;28.494;-16.312;2022-09-09T06:07:30;13.57;;;1.52;;
33840;SDS011;20142;28.494;-16.312;2022-09-09T06:12:32;10.35;;;1.20;;
33840;SDS011;20142;28.494;-16.312;2022-09-09T06:17:34;8.93;;;1.40;;
33840;SDS011;20142;28.494;-16.312;2022-09-09T06:22:35;5.10;;;1.23;;
33840;SDS011;20142;28.494;-16.312;2022-09-09T06:27:39;9.57;;;1.85;;
33840;SDS011;20142;28.494;-16.312;2022-09-09T06:32:42;5.25;;;1.10;;
33840;SDS011;20142;28.494;-16.312;2022-09-09T06:37:45;10.73;;;1.70;;
33840;SDS011;20142;28.494;-16.312;2022-09-09T06:42:49;8.02;;;1.33;;
33840;SDS011;20142;28.494;-16.312;2022-09-09T06:47:54;9.48;;;1.13;;
33840;SDS011;20142;28.494;-16.312;2022-09-09T06:52:57;13.77;;;1.42;;
33840;SDS011;20142;28.494;-16.312;2022-09-09T06:57:59;8.15;;;1.20;;
33840;SDS011;20142;28.494;-16.312;2022-09-09T07:03:00;5.70;;;1.05;;
33840;SDS011;20142;28.494;-16.312;2022-09-09T07:08:03;7.97;;;1.33;;
33840;SDS011;20142;28.494;-16.312;2022-09-09T07:13:05;9.38;;;1.70;;
33840;SDS011;20142;28.494;-16.312;2022-09-09T07:18:08;5.63;;;1.20;;
33840;SDS011;20142;28.494;-16.312;2022-09-09T07:23:10;9.85;;;1.30;;
33840;SDS011;20142;28.494;-16.312;2022-09-09T07:28:13;9.20;;;1.50;;
33840;SDS011;20142;28.494;-16.312;2022-09-09T07:33:15;5.65;;;1.60;;
33840;SDS011;20142;28.494;-16.312;2022-09-09T07:38:18;5.57;;;1.40;;
33840;SDS011;20142;28.494;-16.312;2022-09-09T07:43:25;13.00;;;1.52;;
33840;SDS011;20142;28.494;-16.312;2022-09-09T07:48:27;7.90;;;1.33;;
33840;SDS011;20142;28.494;-16.312;2022-09-09T07:53:29;7.60;;;1.10;;
33840;SDS011;20142;28.494;-16.312;2022-09-09T07:58:31;10.75;;;1.23;;
33840;SDS011;20142;28.494;-16.312;2022-09-09T08:03:33;8.48;;;1.25;;
33840;SDS011;20142;28.494;-16.312;2022-09-09T08:08:35;6.40;;;1.17;;
33840;SDS011;20142;28.494;-16.312;2022-09-09T08:13:39;8.80;;;1.50;;
33840;SDS011;20142;28.494;-16.312;2022-09-09T08:18:41;9.23;;;1.65;;
33840;SDS011;20142;28.494;-16.312;2022-09-09T08:23:45;9.90;;;1.35;;
33840;SDS011;20142;28.494;-16.312;2022-09-09T08:28:48;9.10;;;1.42;;
33840;SDS011;20142;28.494;-16.312;2022-09-09T08:33:53;8.73;;;2.10;;
33840;SDS011;20142;28.494;-16.312;2022-09-09T08:38:56;8.43;;;1.38;;
33840;SDS011;20142;28.494;-16.312;2022-09-09T08:55:38;6.95;;;1.08;;
33840;SDS011;20142;28.494;-16.312;2022-09-09T09:00:20;6.43;;;1.15;;
33840;SDS011;20142;28.494;-16.312;2022-09-09T09:05:27;5.45;;;1.08;;
33840;SDS011;20142;28.494;-16.312;2022-09-09T09:10:48;10.57;;;1.40;;
33840;SDS011;20142;28.494;-16.312;2022-09-09T09:15:55;10.25;;;1.50;;
33840;SDS011;20142;28.494;-16.312;2022-09-09T09:21:10;5.97;;;1.00;;
33840;SDS011;20142;28.494;-16.312;2022-09-09T09:26:15;12.57;;;1.40;;
33840;SDS011;20142;28.494;-16.312;2022-09-09T09:31:17;5.88;;;1.15;;
33840;SDS011;20142;28.494;-16.312;2022-09-09T09:36:20;11.57;;;1.35;;
33840;SDS011;20142;28.494;-16.312;2022-09-09T09:41:36;13.93;;;1.88;;
33840;SDS011;20142;28.494;-16.312;2022-09-09T09:46:42;16.90;;;1.70;;
33840;SDS011;20142;28.494;-16.312;2022-09-09T09:51:44;5.20;;;1.15;;
33840;SDS011;20142;28.494;-16.312;2022-09-09T09:56:47;7.90;;;1.20;;
33840;SDS011;20142;28.494;-16.312;2022-09-09T10:01:49;6.43;;;1.10;;
33840;SDS011;20142;28.494;-16.312;2022-09-09T10:06:51;4.38;;;1.10;;
33840;SDS011;20142;28.494;-16.312;2022-09-09T10:22:42;9.05;;;1.30;;
33840;SDS011;20142;28.494;-16.312;2022-09-09T10:33:35;8.48;;;1.60;;
33840;SDS011;20142;28.494;-16.312;2022-09-09T10:38:49;6.53;;;1.27;;
33840;SDS011;20142;28.494;-16.312;2022-09-09T10:54:39;13.07;;;1.77;;
33840;SDS011;20142;28.494;-16.312;2022-09-09T10:59:58;9.15;;;1.35;;
33840;SDS011;20142;28.494;-16.312;2022-09-09T11:10:30;11.38;;;1.77;;
33840;SDS011;20142;28.494;-16.312;2022-09-09T11:15:42;12.03;;;1.97;;
33840;SDS011;20142;28.494;-16.312;2022-09-09T11:20:47;9.63;;;1.75;;
33840;SDS011;20142;28.494;-16.312;2022-09-09T11:25:57;17.00;;;2.22;;
33840;SDS011;20142;28.494;-16.312;2022-09-09T11:41:23;6.63;;;1.10;;
33840;SDS011;20142;28.494;-16.312;2022-09-09T11:46:36;7.93;;;1.35;;
33840;SDS011;20142;28.494;-16.312;2022-09-09T11:51:39;9.75;;;1.25;;
33840;SDS011;20142;28.494;-16.312;2022-09-09T12:01:44;8.48;;;1.35;;
33840;SDS011;20142;28.494;-16.312;2022-09-09T12:11:51;5.97;;;0.98;;
33840;SDS011;20142;28.494;-16.312;2022-09-09T12:16:53;8.55;;;1.33;;
33840;SDS011;20142;28.494;-16.312;2022-09-09T12:22:01;8.45;;;1.38;;
33840;SDS011;20142;28.494;-16.312;2022-09-09T12:27:11;7.53;;;1.27;;
33840;SDS011;20142;28.494;-16.312;2022-09-09T12:32:24;7.05;;;1.30;;
33840;SDS011;20142;28.494;-16.312;2022-09-09T12:42:39;9.20;;;1.40;;
33840;SDS011;20142;28.494;-16.312;2022-09-09T12:47:43;7.20;;;1.02;;
33840;SDS011;20142;28.494;-16.312;2022-09-09T12:52:50;8.10;;;1.15;;
33840;SDS011;20142;28.494;-16.312;2022-09-09T12:57:54;8.77;;;1.40;;
33840;SDS011;20142;28.494;-16.312;2022-09-09T13:03:00;9.18;;;1.40;;
33840;SDS011;20142;28.494;-16.312;2022-09-09T13:08:11;8.18;;;1.42;;
33840;SDS011;20142;28.494;-16.312;2022-09-09T13:13:15;11.68;;;1.35;;
33840;SDS011;20142;28.494;-16.312;2022-09-09T13:18:18;10.80;;;1.50;;
33840;SDS011;20142;28.494;-16.312;2022-09-09T13:23:33;6.65;;;1.00;;
33840;SDS011;20142;28.494;-16.312;2022-09-09T13:28:36;6.63;;;1.25;;
33840;SDS011;20142;28.494;-16.312;2022-09-09T13:33:38;10.98;;;1.60;;
33840;SDS011;20142;28.494;-16.312;2022-09-09T13:38:53;10.70;;;1.60;;
33840;SDS011;20142;28.494;-16.312;2022-09-09T13:43:56;7.80;;;1.65;;
33840;SDS011;20142;28.494;-16.312;2022-09-09T13:48:59;9.07;;;1.50;;
33840;SDS011;20142;28.494;-16.312;2022-09-09T13:54:12;13.30;;;1.55;;
33840;SDS011;20142;28.494;-16.312;2022-09-09T13:59:16;7.95;;;1.45;;
33840;SDS011;20142;28.494;-16.312;2022-09-09T14:04:20;11.07;;;1.58;;
33840;SDS011;20142;28.494;-16.312;2022-09-09T14:09:22;7.00;;;1.20;;
33840;SDS011;20142;28.494;-16.312;2022-09-09T14:14:24;11.52;;;1.27;;
33840;SDS011;20142;28.494;-16.312;2022-09-09T14:19:26;7.95;;;1.30;;
33840;SDS011;20142;28.494;-16.312;2022-09-09T14:24:29;9.27;;;1.52;;
33840;SDS011;20142;28.494;-16.312;2022-09-09T14:29:31;10.25;;;1.58;;
33840;SDS011;20142;28.494;-16.312;2022-09-09T14:34:33;6.30;;;1.33;;
33840;SDS011;20142;28.494;-16.312;2022-09-09T14:39:35;6.07;;;1.23;;
33840;SDS011;20142;28.494;-16.312;2022-09-09T14:44:38;7.38;;;1.63;;
33840;SDS011;20142;28.494;-16.312;2022-09-09T14:49:41;12.45;;;1.73;;
33840;SDS011;20142;28.494;-16.312;2022-09-09T14:54:43;10.65;;;1.60;;
33840;SDS011;20142;28.494;-16.312;2022-09-09T14:59:45;10.32;;;1.58;;
33840;SDS011;20142;28.494;-16.312;2022-09-09T15:04:47;10.85;;;1.80;;
33840;SDS011;20142;28.494;-16.312;2022-09-09T15:09:50;17.15;;;2.17;;
33840;SDS011;20142;28.494;-16.312;2022-09-09T15:14:53;9.60;;;1.98;;
33840;SDS011;20142;28.494;-16.312;2022-09-09T15:19:55;10.73;;;1.83;;
33840;SDS011;20142;28.494;-16.312;2022-09-09T15:24:57;10.77;;;1.85;;
33840;SDS011;20142;28.494;-16.312;2022-09-09T15:29:59;21.00;;;2.00;;
33840;SDS011;20142;28.494;-16.312;2022-09-09T15:35:01;13.93;;;1.92;;
33840;SDS011;20142;28.494;-16.312;2022-09-09T15:40:03;15.70;;;1.75;;
33840;SDS011;20142;28.494;-16.312;2022-09-09T15:45:06;18.35;;;2.45;;
33840;SDS011;20142;28.494;-16.312;2022-09-09T15:50:09;15.07;;;1.75;;
33840;SDS011;20142;28.494;-16.312;2022-09-09T15:55:11;14.45;;;1.90;;
33840;SDS011;20142;28.494;-16.312;2022-09-09T16:00:13;10.13;;;1.73;;
33840;SDS011;20142;28.494;-16.312;2022-09-09T16:05:15;14.10;;;1.92;;
33840;SDS011;20142;28.494;-16.312;2022-09-09T16:10:17;13.38;;;1.92;;
33840;SDS011;20142;28.494;-16.312;2022-09-09T16:15:19;9.57;;;1.85;;
33840;SDS011;20142;28.494;-16.312;2022-09-09T16:20:23;19.48;;;2.38;;
33840;SDS011;20142;28.494;-16.312;2022-09-09T16:25:26;12.85;;;1.98;;
33840;SDS011;20142;28.494;-16.312;2022-09-09T16:30:28;12.68;;;2.25;;
33840;SDS011;20142;28.494;-16.312;2022-09-09T16:35:30;10.25;;;1.98;;
33840;SDS011;20142;28.494;-16.312;2022-09-09T16:40:33;9.60;;;1.70;;
33840;SDS011;20142;28.494;-16.312;2022-09-09T16:45:40;16.60;;;2.25;;
33840;SDS011;20142;28.494;-16.312;2022-09-09T16:50:43;11.50;;;2.00;;
33840;SDS011;20142;28.494;-16.312;2022-09-09T16:55:46;10.60;;;1.55;;
33840;SDS011;20142;28.494;-16.312;2022-09-09T17:00:48;10.45;;;1.73;;
33840;SDS011;20142;28.494;-16.312;2022-09-09T17:05:51;10.82;;;1.80;;
33840;SDS011;20142;28.494;-16.312;2022-09-09T17:10:53;11.02;;;1.80;;
33840;SDS011;20142;28.494;-16.312;2022-09-09T17:15:55;13.05;;;2.03;;
33840;SDS011;20142;28.494;-16.312;2022-09-09T17:21:02;10.80;;;1.75;;
33840;SDS011;20142;28.494;-16.312;2022-09-09T17:26:09;12.70;;;1.90;;
33840;SDS011;20142;28.494;-16.312;2022-09-09T17:31:14;14.15;;;1.83;;
33840;SDS011;20142;28.494;-16.312;2022-09-09T17:36:30;16.33;;;2.00;;
33840;SDS011;20142;28.494;-16.312;2022-09-09T17:41:34;10.38;;;1.70;;
33840;SDS011;20142;28.494;-16.312;2022-09-09T17:46:38;13.20;;;2.20;;
33840;SDS011;20142;28.494;-16.312;2022-09-09T17:51:42;9.30;;;2.28;;
33840;SDS011;20142;28.494;-16.312;2022-09-09T17:56:45;17.38;;;2.55;;
33840;SDS011;20142;28.494;-16.312;2022-09-09T18:01:47;14.68;;;2.40;;
33840;SDS011;20142;28.494;-16.312;2022-09-09T18:06:51;15.02;;;2.05;;
33840;SDS011;20142;28.494;-16.312;2022-09-09T18:11:57;20.20;;;2.67;;
33840;SDS011;20142;28.494;-16.312;2022-09-09T18:17:00;14.00;;;2.05;;
33840;SDS011;20142;28.494;-16.312;2022-09-09T18:22:03;15.55;;;2.05;;
33840;SDS011;20142;28.494;-16.312;2022-09-09T18:27:06;16.02;;;2.50;;
33840;SDS011;20142;28.494;-16.312;2022-09-09T18:32:08;17.17;;;2.20;;
33840;SDS011;20142;28.494;-16.312;2022-09-09T18:37:10;12.88;;;1.83;;
33840;SDS011;20142;28.494;-16.312;2022-09-09T18:42:13;13.38;;;2.45;;
33840;SDS011;20142;28.494;-16.312;2022-09-09T18:47:14;17.33;;;2.65;;
33840;SDS011;20142;28.494;-16.312;2022-09-09T18:52:17;20.10;;;3.00;;
33840;SDS011;20142;28.494;-16.312;2022-09-09T18:57:19;14.20;;;2.63;;
33840;SDS011;20142;28.494;-16.312;2022-09-09T19:02:21;18.02;;;2.15;;
33840;SDS011;20142;28.494;-16.312;2022-09-09T19:07:23;16.83;;;2.60;;
33840;SDS011;20142;28.494;-16.312;2022-09-09T19:12:25;12.35;;;1.90;;
33840;SDS011;20142;28.494;-16.312;2022-09-09T19:17:27;12.85;;;2.33;;
33840;SDS011;20142;28.494;-16.312;2022-09-09T19:22:29;18.33;;;2.35;;
33840;SDS011;20142;28.494;-16.312;2022-09-09T19:27:32;10.95;;;2.28;;
33840;SDS011;20142;28.494;-16.312;2022-09-09T19:32:34;17.30;;;2.42;;
33840;SDS011;20142;28.494;-16.312;2022-09-09T19:37:39;11.15;;;1.90;;
33840;SDS011;20142;28.494;-16.312;2022-09-09T19:42:41;18.48;;;2.40;;
33840;SDS011;20142;28.494;-16.312;2022-09-09T19:47:43;18.15;;;3.03;;
33840;SDS011;20142;28.494;-16.312;2022-09-09T19:52:45;15.13;;;2.42;;
33840;SDS011;20142;28.494;-16.312;2022-09-09T19:57:47;14.93;;;2.50;;
33840;SDS011;20142;28.494;-16.312;2022-09-09T20:02:49;11.75;;;2.35;;
33840;SDS011;20142;28.494;-16.312;2022-09-09T20:07:51;16.42;;;2.47;;
33840;SDS011;20142;28.494;-16.312;2022-09-09T20:12:53;13.98;;;2.05;;
33840;SDS011;20142;28.494;-16.312;2022-09-09T20:17:55;15.80;;;2.28;;
33840;SDS011;20142;28.494;-16.312;2022-09-09T20:22:57;15.63;;;2.47;;
33840;SDS011;20142;28.494;-16.312;2022-09-09T20:27:59;13.50;;;2.20;;
33840;SDS011;20142;28.494;-16.312;2022-09-09T20:33:01;11.70;;;2.22;;
33840;SDS011;20142;28.494;-16.312;2022-09-09T20:38:04;17.75;;;2.20;;
33840;SDS011;20142;28.494;-16.312;2022-09-09T20:43:09;13.05;;;2.25;;
33840;SDS011;20142;28.494;-16.312;2022-09-09T20:48:12;17.30;;;2.90;;
33840;SDS011;20142;28.494;-16.312;2022-09-09T20:53:14;21.73;;;2.72;;
33840;SDS011;20142;28.494;-16.312;2022-09-09T20:58:16;18.45;;;2.40;;
33840;SDS011;20142;28.494;-16.312;2022-09-09T21:03:18;14.63;;;2.63;;
33840;SDS011;20142;28.494;-16.312;2022-09-09T21:08:20;14.13;;;2.65;;
33840;SDS011;20142;28.494;-16.312;2022-09-09T21:13:22;14.40;;;2.30;;
33840;SDS011;20142;28.494;-16.312;2022-09-09T21:18:25;13.35;;;1.80;;
33840;SDS011;20142;28.494;-16.312;2022-09-09T21:23:28;11.95;;;1.85;;
33840;SDS011;20142;28.494;-16.312;2022-09-09T21:28:30;12.20;;;1.30;;
33840;SDS011;20142;28.494;-16.312;2022-09-09T21:33:33;10.23;;;2.05;;
33840;SDS011;20142;28.494;-16.312;2022-09-09T21:38:36;12.32;;;2.03;;
33840;SDS011;20142;28.494;-16.312;2022-09-09T21:43:42;9.70;;;2.30;;
33840;SDS011;20142;28.494;-16.312;2022-09-09T21:48:46;9.90;;;2.13;;
33840;SDS011;20142;28.494;-16.312;2022-09-09T21:53:48;10.18;;;2.05;;
33840;SDS011;20142;28.494;-16.312;2022-09-09T21:58:59;10.73;;;1.73;;
33840;SDS011;20142;28.494;-16.312;2022-09-09T22:04:03;21.88;;;2.25;;
33840;SDS011;20142;28.494;-16.312;2022-09-09T22:09:05;13.95;;;2.10;;
33840;SDS011;20142;28.494;-16.312;2022-09-09T22:14:07;13.52;;;2.10;;
33840;SDS011;20142;28.494;-16.312;2022-09-09T22:19:09;13.82;;;2.20;;
33840;SDS011;20142;28.494;-16.312;2022-09-09T22:24:11;16.50;;;2.50;;
33840;SDS011;20142;28.494;-16.312;2022-09-09T22:29:13;15.85;;;3.63;;
33840;SDS011;20142;28.494;-16.312;2022-09-09T22:34:15;12.35;;;2.10;;
33840;SDS011;20142;28.494;-16.312;2022-09-09T22:39:17;13.05;;;2.63;;
33840;SDS011;20142;28.494;-16.312;2022-09-09T22:44:19;24.95;;;6.53;;
33840;SDS011;20142;28.494;-16.312;2022-09-09T22:49:25;30.65;;;17.55;;
33840;SDS011;20142;28.494;-16.312;2022-09-09T22:54:27;19.25;;;7.15;;
33840;SDS011;20142;28.494;-16.312;2022-09-09T22:59:29;17.58;;;8.20;;
33840;SDS011;20142;28.494;-16.312;2022-09-09T23:04:31;19.20;;;7.57;;
33840;SDS011;20142;28.494;-16.312;2022-09-09T23:09:33;13.32;;;4.38;;
33840;SDS011;20142;28.494;-16.312;2022-09-09T23:14:35;14.30;;;2.70;;
33840;SDS011;20142;28.494;-16.312;2022-09-09T23:19:37;11.65;;;2.20;;
33840;SDS011;20142;28.494;-16.312;2022-09-09T23:24:39;12.85;;;2.22;;
33840;SDS011;20142;28.494;-16.312;2022-09-09T23:29:41;13.52;;;2.10;;
33840;SDS011;20142;28.494;-16.312;2022-09-09T23:34:43;13.38;;;1.70;;
33840;SDS011;20142;28.494;-16.312;2022-09-09T23:39:47;11.32;;;1.63;;
33840;SDS011;20142;28.494;-16.312;2022-09-09T23:44:48;9.25;;;1.60;;
33840;SDS011;20142;28.494;-16.312;2022-09-09T23:49:51;9.32;;;1.65;;
33840;SDS011;20142;28.494;-16.312;2022-09-09T23:54:53;13.23;;;2.28;;
33840;SDS011;20142;28.494;-16.312;2022-09-09T23:59:56;15.02;;;2.63;;
